sensor_id;sensor_type;location;lat;lon;timestamp;P1;durP1;ratioP1;P2;durP2;ratioP2
55290;SDS011;41155;39.768;2.712;2023-04-03T00:00:52;29.80;;;12.00;;
55290;SDS011;41155;39.768;2.712;2023-04-03T00:03:18;30.95;;;11.85;;
55290;SDS011;41155;39.768;2.712;2023-04-03T00:05:44;22.55;;;6.95;;
55290;SDS011;41155;39.768;2.712;2023-04-03T00:08:10;19.67;;;6.75;;
55290;SDS011;41155;39.768;2.712;2023-04-03T00:10:36;26.30;;;9.63;;
55290;SDS011;41155;39.768;2.712;2023-04-03T00:13:02;12.05;;;6.43;;
55290;SDS011;41155;39.768;2.712;2023-04-03T00:15:29;15.15;;;5.90;;
55290;SDS011;41155;39.768;2.712;2023-04-03T00:17:55;20.63;;;7.10;;
55290;SDS011;41155;39.768;2.712;2023-04-03T00:20:20;17.58;;;5.95;;
55290;SDS011;41155;39.768;2.712;2023-04-03T00:22:46;14.20;;;5.57;;
55290;SDS011;41155;39.768;2.712;2023-04-03T00:25:11;18.70;;;6.38;;
55290;SDS011;41155;39.768;2.712;2023-04-03T00:27:38;19.55;;;5.78;;
55290;SDS011;41155;39.768;2.712;2023-04-03T00:30:04;24.02;;;6.93;;
55290;SDS011;41155;39.768;2.712;2023-04-03T00:32:32;17.20;;;5.93;;
55290;SDS011;41155;39.768;2.712;2023-04-03T00:34:57;20.88;;;6.68;;
55290;SDS011;41155;39.768;2.712;2023-04-03T00:37:23;22.35;;;6.32;;
55290;SDS011;41155;39.768;2.712;2023-04-03T00:39:48;20.40;;;5.70;;
55290;SDS011;41155;39.768;2.712;2023-04-03T00:42:14;24.17;;;7.13;;
55290;SDS011;41155;39.768;2.712;2023-04-03T00:47:05;12.77;;;6.07;;
55290;SDS011;41155;39.768;2.712;2023-04-03T00:49:33;14.85;;;6.47;;
55290;SDS011;41155;39.768;2.712;2023-04-03T00:52:00;14.30;;;6.00;;
55290;SDS011;41155;39.768;2.712;2023-04-03T00:54:26;14.75;;;5.43;;
55290;SDS011;41155;39.768;2.712;2023-04-03T00:56:52;28.05;;;7.07;;
55290;SDS011;41155;39.768;2.712;2023-04-03T00:59:22;24.73;;;6.32;;
55290;SDS011;41155;39.768;2.712;2023-04-03T01:01:52;22.45;;;6.95;;
55290;SDS011;41155;39.768;2.712;2023-04-03T01:04:30;14.80;;;7.18;;
55290;SDS011;41155;39.768;2.712;2023-04-03T01:07:03;14.38;;;6.80;;
55290;SDS011;41155;39.768;2.712;2023-04-03T01:09:32;16.05;;;6.47;;
55290;SDS011;41155;39.768;2.712;2023-04-03T01:14:42;15.82;;;7.70;;
55290;SDS011;41155;39.768;2.712;2023-04-03T01:23:30;58.38;;;17.92;;
55290;SDS011;41155;39.768;2.712;2023-04-03T01:25:34;52.45;;;17.05;;
55290;SDS011;41155;39.768;2.712;2023-04-03T01:28:02;34.55;;;12.70;;
55290;SDS011;41155;39.768;2.712;2023-04-03T01:30:30;23.27;;;8.68;;
55290;SDS011;41155;39.768;2.712;2023-04-03T01:32:59;21.10;;;7.50;;
55290;SDS011;41155;39.768;2.712;2023-04-03T01:35:24;24.33;;;7.95;;
55290;SDS011;41155;39.768;2.712;2023-04-03T01:37:50;14.80;;;7.55;;
55290;SDS011;41155;39.768;2.712;2023-04-03T01:40:15;15.95;;;8.18;;
55290;SDS011;41155;39.768;2.712;2023-04-03T01:42:41;21.35;;;7.80;;
55290;SDS011;41155;39.768;2.712;2023-04-03T01:45:07;40.53;;;9.18;;
55290;SDS011;41155;39.768;2.712;2023-04-03T01:47:32;27.95;;;8.90;;
55290;SDS011;41155;39.768;2.712;2023-04-03T01:49:58;18.95;;;8.13;;
55290;SDS011;41155;39.768;2.712;2023-04-03T01:52:23;43.53;;;12.35;;
55290;SDS011;41155;39.768;2.712;2023-04-03T01:54:49;51.45;;;17.92;;
55290;SDS011;41155;39.768;2.712;2023-04-03T01:57:15;26.13;;;9.98;;
55290;SDS011;41155;39.768;2.712;2023-04-03T01:59:41;26.00;;;10.25;;
55290;SDS011;41155;39.768;2.712;2023-04-03T02:02:07;30.65;;;9.00;;
55290;SDS011;41155;39.768;2.712;2023-04-03T02:04:32;26.90;;;8.00;;
55290;SDS011;41155;39.768;2.712;2023-04-03T02:06:58;13.18;;;6.97;;
55290;SDS011;41155;39.768;2.712;2023-04-03T02:09:23;16.77;;;6.65;;
55290;SDS011;41155;39.768;2.712;2023-04-03T02:11:49;18.42;;;6.30;;
55290;SDS011;41155;39.768;2.712;2023-04-03T02:14:15;19.35;;;6.35;;
55290;SDS011;41155;39.768;2.712;2023-04-03T02:16:40;18.65;;;6.53;;
55290;SDS011;41155;39.768;2.712;2023-04-03T02:19:06;23.90;;;7.47;;
55290;SDS011;41155;39.768;2.712;2023-04-03T02:21:31;28.20;;;7.10;;
55290;SDS011;41155;39.768;2.712;2023-04-03T02:23:57;24.17;;;7.05;;
55290;SDS011;41155;39.768;2.712;2023-04-03T02:26:22;20.00;;;6.90;;
55290;SDS011;41155;39.768;2.712;2023-04-03T02:28:48;13.63;;;6.63;;
55290;SDS011;41155;39.768;2.712;2023-04-03T02:31:13;16.52;;;6.68;;
55290;SDS011;41155;39.768;2.712;2023-04-03T02:33:39;15.90;;;5.75;;
55290;SDS011;41155;39.768;2.712;2023-04-03T02:36:05;19.92;;;6.15;;
55290;SDS011;41155;39.768;2.712;2023-04-03T02:38:32;14.50;;;6.93;;
55290;SDS011;41155;39.768;2.712;2023-04-03T02:41:01;19.13;;;6.25;;
55290;SDS011;41155;39.768;2.712;2023-04-03T02:43:31;16.67;;;6.05;;
55290;SDS011;41155;39.768;2.712;2023-04-03T02:45:57;17.73;;;6.40;;
55290;SDS011;41155;39.768;2.712;2023-04-03T02:48:23;17.80;;;6.15;;
55290;SDS011;41155;39.768;2.712;2023-04-03T02:50:49;16.00;;;6.10;;
55290;SDS011;41155;39.768;2.712;2023-04-03T02:53:15;17.77;;;5.97;;
55290;SDS011;41155;39.768;2.712;2023-04-03T02:55:40;16.75;;;6.35;;
55290;SDS011;41155;39.768;2.712;2023-04-03T02:58:06;20.92;;;6.28;;
55290;SDS011;41155;39.768;2.712;2023-04-03T03:00:32;18.38;;;6.00;;
55290;SDS011;41155;39.768;2.712;2023-04-03T03:02:57;14.13;;;6.38;;
55290;SDS011;41155;39.768;2.712;2023-04-03T03:05:23;20.52;;;6.38;;
55290;SDS011;41155;39.768;2.712;2023-04-03T03:07:50;15.85;;;6.32;;
55290;SDS011;41155;39.768;2.712;2023-04-03T03:10:16;17.50;;;6.47;;
55290;SDS011;41155;39.768;2.712;2023-04-03T03:12:41;22.10;;;6.03;;
55290;SDS011;41155;39.768;2.712;2023-04-03T03:15:07;11.15;;;5.55;;
55290;SDS011;41155;39.768;2.712;2023-04-03T03:17:33;14.95;;;6.07;;
55290;SDS011;41155;39.768;2.712;2023-04-03T03:19:58;17.38;;;6.13;;
55290;SDS011;41155;39.768;2.712;2023-04-03T03:22:25;20.88;;;6.60;;
55290;SDS011;41155;39.768;2.712;2023-04-03T03:24:51;16.35;;;6.20;;
55290;SDS011;41155;39.768;2.712;2023-04-03T03:27:16;22.13;;;7.38;;
55290;SDS011;41155;39.768;2.712;2023-04-03T03:29:42;26.30;;;7.80;;
55290;SDS011;41155;39.768;2.712;2023-04-03T03:32:08;20.63;;;7.95;;
55290;SDS011;41155;39.768;2.712;2023-04-03T03:34:33;21.45;;;7.43;;
55290;SDS011;41155;39.768;2.712;2023-04-03T03:36:59;20.58;;;6.03;;
55290;SDS011;41155;39.768;2.712;2023-04-03T03:39:24;18.92;;;7.07;;
55290;SDS011;41155;39.768;2.712;2023-04-03T03:41:50;21.98;;;7.65;;
55290;SDS011;41155;39.768;2.712;2023-04-03T03:44:18;20.00;;;7.07;;
55290;SDS011;41155;39.768;2.712;2023-04-03T03:46:44;13.05;;;5.55;;
55290;SDS011;41155;39.768;2.712;2023-04-03T03:49:10;22.70;;;6.50;;
55290;SDS011;41155;39.768;2.712;2023-04-03T03:51:36;11.85;;;5.65;;
55290;SDS011;41155;39.768;2.712;2023-04-03T03:54:02;12.27;;;6.38;;
55290;SDS011;41155;39.768;2.712;2023-04-03T03:56:28;17.25;;;5.43;;
55290;SDS011;41155;39.768;2.712;2023-04-03T03:58:54;15.75;;;5.82;;
55290;SDS011;41155;39.768;2.712;2023-04-03T04:01:21;13.25;;;5.20;;
55290;SDS011;41155;39.768;2.712;2023-04-03T04:03:48;12.90;;;5.85;;
55290;SDS011;41155;39.768;2.712;2023-04-03T04:06:13;13.98;;;5.88;;
55290;SDS011;41155;39.768;2.712;2023-04-03T04:08:39;17.17;;;7.07;;
55290;SDS011;41155;39.768;2.712;2023-04-03T04:11:05;17.88;;;6.60;;
55290;SDS011;41155;39.768;2.712;2023-04-03T04:13:30;15.55;;;6.30;;
55290;SDS011;41155;39.768;2.712;2023-04-03T04:15:56;14.98;;;5.70;;
55290;SDS011;41155;39.768;2.712;2023-04-03T04:18:21;13.10;;;6.00;;
55290;SDS011;41155;39.768;2.712;2023-04-03T04:20:47;12.95;;;6.20;;
55290;SDS011;41155;39.768;2.712;2023-04-03T04:23:13;23.23;;;5.80;;
55290;SDS011;41155;39.768;2.712;2023-04-03T04:25:39;13.50;;;6.32;;
55290;SDS011;41155;39.768;2.712;2023-04-03T04:28:05;18.00;;;5.72;;
55290;SDS011;41155;39.768;2.712;2023-04-03T04:30:31;25.15;;;5.68;;
55290;SDS011;41155;39.768;2.712;2023-04-03T04:32:56;14.18;;;5.70;;
55290;SDS011;41155;39.768;2.712;2023-04-03T04:35:22;16.98;;;5.68;;
55290;SDS011;41155;39.768;2.712;2023-04-03T04:37:47;12.32;;;6.20;;
55290;SDS011;41155;39.768;2.712;2023-04-03T04:40:12;9.13;;;5.80;;
55290;SDS011;41155;39.768;2.712;2023-04-03T04:42:38;15.38;;;6.55;;
55290;SDS011;41155;39.768;2.712;2023-04-03T04:45:04;29.20;;;6.63;;
55290;SDS011;41155;39.768;2.712;2023-04-03T04:47:30;11.15;;;5.95;;
55290;SDS011;41155;39.768;2.712;2023-04-03T04:49:55;11.70;;;5.55;;
55290;SDS011;41155;39.768;2.712;2023-04-03T04:52:21;20.13;;;6.68;;
55290;SDS011;41155;39.768;2.712;2023-04-03T04:54:46;16.75;;;6.00;;
55290;SDS011;41155;39.768;2.712;2023-04-03T04:57:12;20.15;;;5.82;;
55290;SDS011;41155;39.768;2.712;2023-04-03T04:59:37;20.00;;;6.65;;
55290;SDS011;41155;39.768;2.712;2023-04-03T05:02:03;16.67;;;8.10;;
55290;SDS011;41155;39.768;2.712;2023-04-03T05:04:28;24.25;;;7.05;;
55290;SDS011;41155;39.768;2.712;2023-04-03T05:06:54;14.95;;;6.10;;
55290;SDS011;41155;39.768;2.712;2023-04-03T05:09:20;9.43;;;5.72;;
55290;SDS011;41155;39.768;2.712;2023-04-03T05:11:46;10.25;;;6.00;;
55290;SDS011;41155;39.768;2.712;2023-04-03T05:14:11;13.60;;;5.85;;
55290;SDS011;41155;39.768;2.712;2023-04-03T05:16:37;17.92;;;5.88;;
55290;SDS011;41155;39.768;2.712;2023-04-03T05:19:04;13.55;;;6.32;;
55290;SDS011;41155;39.768;2.712;2023-04-03T05:21:29;14.73;;;6.40;;
55290;SDS011;41155;39.768;2.712;2023-04-03T05:24:00;12.88;;;7.00;;
55290;SDS011;41155;39.768;2.712;2023-04-03T05:26:29;14.52;;;6.82;;
55290;SDS011;41155;39.768;2.712;2023-04-03T05:28:55;16.58;;;6.45;;
55290;SDS011;41155;39.768;2.712;2023-04-03T05:31:21;10.32;;;6.20;;
55290;SDS011;41155;39.768;2.712;2023-04-03T05:33:46;14.80;;;6.85;;
55290;SDS011;41155;39.768;2.712;2023-04-03T05:36:12;17.80;;;6.35;;
55290;SDS011;41155;39.768;2.712;2023-04-03T05:38:38;15.50;;;5.90;;
55290;SDS011;41155;39.768;2.712;2023-04-03T05:41:04;16.73;;;5.90;;
55290;SDS011;41155;39.768;2.712;2023-04-03T05:43:30;36.58;;;17.88;;
55290;SDS011;41155;39.768;2.712;2023-04-03T05:45:56;20.77;;;8.57;;
55290;SDS011;41155;39.768;2.712;2023-04-03T05:48:21;19.60;;;7.93;;
55290;SDS011;41155;39.768;2.712;2023-04-03T05:50:47;23.52;;;6.75;;
55290;SDS011;41155;39.768;2.712;2023-04-03T05:53:15;20.00;;;7.78;;
55290;SDS011;41155;39.768;2.712;2023-04-03T05:55:46;16.97;;;8.50;;
55290;SDS011;41155;39.768;2.712;2023-04-03T05:58:11;13.23;;;6.60;;
55290;SDS011;41155;39.768;2.712;2023-04-03T06:00:37;27.40;;;7.10;;
55290;SDS011;41155;39.768;2.712;2023-04-03T06:03:02;20.80;;;7.18;;
55290;SDS011;41155;39.768;2.712;2023-04-03T06:05:28;14.63;;;6.95;;
55290;SDS011;41155;39.768;2.712;2023-04-03T06:07:53;19.15;;;6.75;;
55290;SDS011;41155;39.768;2.712;2023-04-03T06:10:19;22.40;;;7.35;;
55290;SDS011;41155;39.768;2.712;2023-04-03T06:12:45;14.52;;;7.55;;
55290;SDS011;41155;39.768;2.712;2023-04-03T06:15:10;14.60;;;7.38;;
55290;SDS011;41155;39.768;2.712;2023-04-03T06:17:36;14.75;;;7.20;;
55290;SDS011;41155;39.768;2.712;2023-04-03T06:20:03;22.80;;;7.53;;
55290;SDS011;41155;39.768;2.712;2023-04-03T06:22:29;17.27;;;7.63;;
55290;SDS011;41155;39.768;2.712;2023-04-03T06:24:55;18.83;;;8.10;;
55290;SDS011;41155;39.768;2.712;2023-04-03T06:27:21;15.35;;;7.95;;
55290;SDS011;41155;39.768;2.712;2023-04-03T06:29:46;15.55;;;9.15;;
55290;SDS011;41155;39.768;2.712;2023-04-03T06:32:13;35.70;;;10.02;;
55290;SDS011;41155;39.768;2.712;2023-04-03T06:34:39;29.08;;;10.85;;
55290;SDS011;41155;39.768;2.712;2023-04-03T06:37:05;23.55;;;9.07;;
55290;SDS011;41155;39.768;2.712;2023-04-03T06:39:31;33.30;;;9.43;;
55290;SDS011;41155;39.768;2.712;2023-04-03T06:41:57;28.17;;;10.23;;
55290;SDS011;41155;39.768;2.712;2023-04-03T06:44:23;40.08;;;10.80;;
55290;SDS011;41155;39.768;2.712;2023-04-03T06:46:48;23.63;;;9.13;;
55290;SDS011;41155;39.768;2.712;2023-04-03T06:49:14;28.60;;;8.95;;
55290;SDS011;41155;39.768;2.712;2023-04-03T06:51:40;28.20;;;10.30;;
55290;SDS011;41155;39.768;2.712;2023-04-03T06:54:05;15.10;;;9.20;;
55290;SDS011;41155;39.768;2.712;2023-04-03T06:56:33;19.67;;;8.10;;
55290;SDS011;41155;39.768;2.712;2023-04-03T06:58:59;34.22;;;9.80;;
55290;SDS011;41155;39.768;2.712;2023-04-03T07:01:26;25.50;;;9.13;;
55290;SDS011;41155;39.768;2.712;2023-04-03T07:03:53;20.00;;;9.10;;
55290;SDS011;41155;39.768;2.712;2023-04-03T07:06:19;20.42;;;8.75;;
55290;SDS011;41155;39.768;2.712;2023-04-03T07:08:45;18.05;;;7.95;;
55290;SDS011;41155;39.768;2.712;2023-04-03T07:11:13;18.27;;;7.68;;
55290;SDS011;41155;39.768;2.712;2023-04-03T07:13:39;30.15;;;10.45;;
55290;SDS011;41155;39.768;2.712;2023-04-03T07:16:05;35.17;;;10.57;;
55290;SDS011;41155;39.768;2.712;2023-04-03T07:18:31;23.80;;;9.05;;
55290;SDS011;41155;39.768;2.712;2023-04-03T07:20:57;24.15;;;7.70;;
55290;SDS011;41155;39.768;2.712;2023-04-03T07:23:23;23.13;;;7.78;;
55290;SDS011;41155;39.768;2.712;2023-04-03T07:25:50;22.02;;;7.50;;
55290;SDS011;41155;39.768;2.712;2023-04-03T07:28:16;19.85;;;7.00;;
55290;SDS011;41155;39.768;2.712;2023-04-03T07:33:13;19.23;;;8.30;;
55290;SDS011;41155;39.768;2.712;2023-04-03T07:35:40;18.95;;;9.18;;
55290;SDS011;41155;39.768;2.712;2023-04-03T07:38:06;29.08;;;10.70;;
55290;SDS011;41155;39.768;2.712;2023-04-03T07:40:32;22.08;;;10.93;;
55290;SDS011;41155;39.768;2.712;2023-04-03T07:42:58;28.27;;;12.18;;
55290;SDS011;41155;39.768;2.712;2023-04-03T07:45:24;31.58;;;13.43;;
55290;SDS011;41155;39.768;2.712;2023-04-03T07:47:50;25.98;;;10.98;;
55290;SDS011;41155;39.768;2.712;2023-04-03T07:50:17;24.05;;;9.70;;
55290;SDS011;41155;39.768;2.712;2023-04-03T07:52:42;14.55;;;8.73;;
55290;SDS011;41155;39.768;2.712;2023-04-03T07:55:09;30.10;;;10.40;;
55290;SDS011;41155;39.768;2.712;2023-04-03T07:57:35;26.52;;;10.30;;
55290;SDS011;41155;39.768;2.712;2023-04-03T08:00:04;20.05;;;9.43;;
55290;SDS011;41155;39.768;2.712;2023-04-03T08:02:31;31.42;;;10.38;;
55290;SDS011;41155;39.768;2.712;2023-04-03T08:04:59;28.88;;;8.18;;
55290;SDS011;41155;39.768;2.712;2023-04-03T08:07:24;11.60;;;7.05;;
55290;SDS011;41155;39.768;2.712;2023-04-03T08:09:50;24.67;;;8.30;;
55290;SDS011;41155;39.768;2.712;2023-04-03T08:12:16;20.80;;;8.10;;
55290;SDS011;41155;39.768;2.712;2023-04-03T08:14:42;15.95;;;7.93;;
55290;SDS011;41155;39.768;2.712;2023-04-03T08:17:08;13.70;;;6.80;;
55290;SDS011;41155;39.768;2.712;2023-04-03T08:19:37;15.90;;;6.80;;
55290;SDS011;41155;39.768;2.712;2023-04-03T08:22:03;18.35;;;8.02;;
55290;SDS011;41155;39.768;2.712;2023-04-03T08:24:30;22.02;;;9.55;;
55290;SDS011;41155;39.768;2.712;2023-04-03T08:26:56;22.35;;;7.75;;
55290;SDS011;41155;39.768;2.712;2023-04-03T08:29:22;12.55;;;7.00;;
55290;SDS011;41155;39.768;2.712;2023-04-03T08:31:48;20.38;;;7.65;;
55290;SDS011;41155;39.768;2.712;2023-04-03T08:34:15;22.23;;;7.03;;
55290;SDS011;41155;39.768;2.712;2023-04-03T08:36:41;16.48;;;7.35;;
55290;SDS011;41155;39.768;2.712;2023-04-03T08:39:07;29.60;;;9.00;;
55290;SDS011;41155;39.768;2.712;2023-04-03T08:41:37;16.08;;;7.30;;
55290;SDS011;41155;39.768;2.712;2023-04-03T08:47:21;13.50;;;6.60;;
55290;SDS011;41155;39.768;2.712;2023-04-03T08:52:12;22.27;;;7.05;;
55290;SDS011;41155;39.768;2.712;2023-04-03T08:54:50;11.73;;;6.50;;
55290;SDS011;41155;39.768;2.712;2023-04-03T09:02:46;21.63;;;7.50;;
55290;SDS011;41155;39.768;2.712;2023-04-03T09:05:15;12.93;;;6.03;;
55290;SDS011;41155;39.768;2.712;2023-04-03T09:07:51;15.20;;;6.82;;
55290;SDS011;41155;39.768;2.712;2023-04-03T09:10:27;16.08;;;6.88;;
55290;SDS011;41155;39.768;2.712;2023-04-03T09:13:06;13.30;;;6.18;;
55290;SDS011;41155;39.768;2.712;2023-04-03T09:15:43;15.52;;;7.63;;
55290;SDS011;41155;39.768;2.712;2023-04-03T09:18:16;12.80;;;5.88;;
55290;SDS011;41155;39.768;2.712;2023-04-03T09:20:49;14.35;;;6.40;;
55290;SDS011;41155;39.768;2.712;2023-04-03T09:23:38;18.17;;;7.70;;
55290;SDS011;41155;39.768;2.712;2023-04-03T09:28:51;20.92;;;8.90;;
55290;SDS011;41155;39.768;2.712;2023-04-03T09:31:21;31.95;;;8.98;;
55290;SDS011;41155;39.768;2.712;2023-04-03T09:33:50;39.88;;;18.35;;
55290;SDS011;41155;39.768;2.712;2023-04-03T09:36:37;20.67;;;9.52;;
55290;SDS011;41155;39.768;2.712;2023-04-03T09:39:14;22.83;;;11.32;;
55290;SDS011;41155;39.768;2.712;2023-04-03T09:44:58;23.98;;;10.88;;
55290;SDS011;41155;39.768;2.712;2023-04-03T09:47:30;27.13;;;10.93;;
55290;SDS011;41155;39.768;2.712;2023-04-03T09:52:44;24.52;;;10.82;;
55290;SDS011;41155;39.768;2.712;2023-04-03T09:55:19;35.42;;;14.73;;
55290;SDS011;41155;39.768;2.712;2023-04-03T09:57:51;32.47;;;13.02;;
55290;SDS011;41155;39.768;2.712;2023-04-03T10:00:22;29.30;;;15.45;;
55290;SDS011;41155;39.768;2.712;2023-04-03T10:02:51;30.15;;;16.23;;
55290;SDS011;41155;39.768;2.712;2023-04-03T10:05:30;40.60;;;23.55;;
55290;SDS011;41155;39.768;2.712;2023-04-03T10:10:45;40.50;;;16.05;;
55290;SDS011;41155;39.768;2.712;2023-04-03T10:13:13;98.22;;;62.20;;
55290;SDS011;41155;39.768;2.712;2023-04-03T10:15:44;40.70;;;23.35;;
55290;SDS011;41155;39.768;2.712;2023-04-03T10:18:31;33.63;;;16.98;;
55290;SDS011;41155;39.768;2.712;2023-04-03T10:21:24;25.90;;;15.63;;
55290;SDS011;41155;39.768;2.712;2023-04-03T10:24:07;32.55;;;13.02;;
55290;SDS011;41155;39.768;2.712;2023-04-03T10:26:42;31.40;;;16.52;;
55290;SDS011;41155;39.768;2.712;2023-04-03T10:40:36;20.48;;;12.93;;
55290;SDS011;41155;39.768;2.712;2023-04-03T10:45:55;26.65;;;15.75;;
55290;SDS011;41155;39.768;2.712;2023-04-03T10:54:11;26.27;;;12.68;;
55290;SDS011;41155;39.768;2.712;2023-04-03T10:57:11;35.22;;;10.15;;
55290;SDS011;41155;39.768;2.712;2023-04-03T11:02:07;24.15;;;10.95;;
55290;SDS011;41155;39.768;2.712;2023-04-03T11:04:52;23.48;;;10.45;;
55290;SDS011;41155;39.768;2.712;2023-04-03T11:07:45;21.05;;;10.23;;
55290;SDS011;41155;39.768;2.712;2023-04-03T11:10:18;28.55;;;10.55;;
55290;SDS011;41155;39.768;2.712;2023-04-03T11:12:56;24.67;;;10.25;;
55290;SDS011;41155;39.768;2.712;2023-04-03T11:15:27;28.35;;;11.30;;
55290;SDS011;41155;39.768;2.712;2023-04-03T11:18:42;39.08;;;14.40;;
55290;SDS011;41155;39.768;2.712;2023-04-03T11:20:50;24.73;;;9.18;;
55290;SDS011;41155;39.768;2.712;2023-04-03T11:23:26;19.98;;;9.75;;
55290;SDS011;41155;39.768;2.712;2023-04-03T11:25:59;36.08;;;15.15;;
55290;SDS011;41155;39.768;2.712;2023-04-03T11:28:33;33.20;;;12.27;;
55290;SDS011;41155;39.768;2.712;2023-04-03T11:41:42;30.13;;;14.07;;
55290;SDS011;41155;39.768;2.712;2023-04-03T11:44:41;69.95;;;34.65;;
55290;SDS011;41155;39.768;2.712;2023-04-03T11:47:07;32.00;;;13.85;;
55290;SDS011;41155;39.768;2.712;2023-04-03T12:08:43;27.85;;;9.50;;
55290;SDS011;41155;39.768;2.712;2023-04-03T12:46:18;31.95;;;12.05;;
55290;SDS011;41155;39.768;2.712;2023-04-03T12:51:17;22.17;;;9.23;;
55290;SDS011;41155;39.768;2.712;2023-04-03T12:53:46;13.88;;;4.72;;
55290;SDS011;41155;39.768;2.712;2023-04-03T12:56:28;19.05;;;6.82;;
55290;SDS011;41155;39.768;2.712;2023-04-03T12:59:18;20.50;;;8.52;;
55290;SDS011;41155;39.768;2.712;2023-04-03T13:01:52;15.95;;;8.45;;
55290;SDS011;41155;39.768;2.712;2023-04-03T13:04:19;26.83;;;10.43;;
55290;SDS011;41155;39.768;2.712;2023-04-03T13:06:45;17.38;;;5.18;;
55290;SDS011;41155;39.768;2.712;2023-04-03T13:09:30;19.42;;;9.13;;
55290;SDS011;41155;39.768;2.712;2023-04-03T13:12:30;21.00;;;4.47;;
55290;SDS011;41155;39.768;2.712;2023-04-03T13:14:52;18.10;;;4.07;;
55290;SDS011;41155;39.768;2.712;2023-04-03T13:17:23;16.75;;;5.35;;
55290;SDS011;41155;39.768;2.712;2023-04-03T13:19:50;12.45;;;4.32;;
55290;SDS011;41155;39.768;2.712;2023-04-03T13:22:24;10.52;;;5.18;;
55290;SDS011;41155;39.768;2.712;2023-04-03T13:24:55;8.25;;;3.55;;
55290;SDS011;41155;39.768;2.712;2023-04-03T13:27:23;12.88;;;3.70;;
55290;SDS011;41155;39.768;2.712;2023-04-03T13:29:50;9.63;;;3.53;;
55290;SDS011;41155;39.768;2.712;2023-04-03T13:32:22;13.27;;;4.32;;
55290;SDS011;41155;39.768;2.712;2023-04-03T13:34:49;8.85;;;3.45;;
55290;SDS011;41155;39.768;2.712;2023-04-03T13:37:22;10.50;;;4.90;;
55290;SDS011;41155;39.768;2.712;2023-04-03T13:42:41;11.18;;;4.22;;
55290;SDS011;41155;39.768;2.712;2023-04-03T13:45:26;14.88;;;4.47;;
55290;SDS011;41155;39.768;2.712;2023-04-03T13:48:06;12.20;;;3.92;;
55290;SDS011;41155;39.768;2.712;2023-04-03T13:50:41;12.02;;;4.15;;
55290;SDS011;41155;39.768;2.712;2023-04-03T13:53:41;15.05;;;4.55;;
55290;SDS011;41155;39.768;2.712;2023-04-03T13:56:36;15.98;;;4.43;;
55290;SDS011;41155;39.768;2.712;2023-04-03T13:59:05;10.25;;;4.75;;
55290;SDS011;41155;39.768;2.712;2023-04-03T14:04:27;12.48;;;4.25;;
55290;SDS011;41155;39.768;2.712;2023-04-03T14:06:55;5.88;;;3.70;;
55290;SDS011;41155;39.768;2.712;2023-04-03T14:09:22;9.20;;;4.65;;
55290;SDS011;41155;39.768;2.712;2023-04-03T14:11:49;8.40;;;3.90;;
55290;SDS011;41155;39.768;2.712;2023-04-03T14:14:19;17.85;;;4.40;;
55290;SDS011;41155;39.768;2.712;2023-04-03T14:16:53;13.07;;;4.13;;
55290;SDS011;41155;39.768;2.712;2023-04-03T14:19:24;12.00;;;4.60;;
55290;SDS011;41155;39.768;2.712;2023-04-03T14:21:53;9.50;;;4.28;;
55290;SDS011;41155;39.768;2.712;2023-04-03T14:24:21;9.57;;;4.45;;
55290;SDS011;41155;39.768;2.712;2023-04-03T14:26:47;10.43;;;4.82;;
55290;SDS011;41155;39.768;2.712;2023-04-03T14:29:15;12.45;;;5.05;;
55290;SDS011;41155;39.768;2.712;2023-04-03T14:31:43;12.05;;;4.72;;
55290;SDS011;41155;39.768;2.712;2023-04-03T14:34:11;10.45;;;4.47;;
55290;SDS011;41155;39.768;2.712;2023-04-03T14:36:38;14.55;;;5.00;;
55290;SDS011;41155;39.768;2.712;2023-04-03T14:39:04;13.98;;;4.68;;
55290;SDS011;41155;39.768;2.712;2023-04-03T14:41:31;15.38;;;4.20;;
55290;SDS011;41155;39.768;2.712;2023-04-03T14:43:57;14.60;;;4.35;;
55290;SDS011;41155;39.768;2.712;2023-04-03T14:46:27;8.55;;;4.07;;
55290;SDS011;41155;39.768;2.712;2023-04-03T14:48:55;8.47;;;4.20;;
55290;SDS011;41155;39.768;2.712;2023-04-03T14:51:21;7.88;;;4.05;;
55290;SDS011;41155;39.768;2.712;2023-04-03T14:53:47;12.07;;;4.35;;
55290;SDS011;41155;39.768;2.712;2023-04-03T14:56:16;9.77;;;4.38;;
55290;SDS011;41155;39.768;2.712;2023-04-03T14:58:46;8.68;;;4.63;;
55290;SDS011;41155;39.768;2.712;2023-04-03T15:01:15;13.45;;;4.78;;
55290;SDS011;41155;39.768;2.712;2023-04-03T15:03:41;8.50;;;4.22;;
55290;SDS011;41155;39.768;2.712;2023-04-03T15:06:07;8.65;;;4.25;;
55290;SDS011;41155;39.768;2.712;2023-04-03T15:08:35;6.47;;;4.32;;
55290;SDS011;41155;39.768;2.712;2023-04-03T15:11:01;8.15;;;4.25;;
55290;SDS011;41155;39.768;2.712;2023-04-03T15:13:26;9.80;;;4.38;;
55290;SDS011;41155;39.768;2.712;2023-04-03T15:15:52;9.70;;;4.18;;
55290;SDS011;41155;39.768;2.712;2023-04-03T15:18:19;9.32;;;4.05;;
55290;SDS011;41155;39.768;2.712;2023-04-03T15:20:47;10.63;;;4.50;;
55290;SDS011;41155;39.768;2.712;2023-04-03T15:23:13;9.48;;;4.70;;
55290;SDS011;41155;39.768;2.712;2023-04-03T15:25:41;12.80;;;4.35;;
55290;SDS011;41155;39.768;2.712;2023-04-03T15:28:09;9.88;;;4.75;;
55290;SDS011;41155;39.768;2.712;2023-04-03T15:30:48;7.15;;;4.00;;
55290;SDS011;41155;39.768;2.712;2023-04-03T15:33:14;9.85;;;5.03;;
55290;SDS011;41155;39.768;2.712;2023-04-03T15:35:40;14.40;;;4.85;;
55290;SDS011;41155;39.768;2.712;2023-04-03T15:38:06;13.93;;;6.28;;
55290;SDS011;41155;39.768;2.712;2023-04-03T15:40:32;13.68;;;4.25;;
55290;SDS011;41155;39.768;2.712;2023-04-03T15:42:57;8.57;;;4.60;;
55290;SDS011;41155;39.768;2.712;2023-04-03T15:45:23;7.38;;;4.45;;
55290;SDS011;41155;39.768;2.712;2023-04-03T15:47:48;11.18;;;4.15;;
55290;SDS011;41155;39.768;2.712;2023-04-03T15:50:14;8.52;;;4.70;;
55290;SDS011;41155;39.768;2.712;2023-04-03T15:52:40;9.85;;;4.50;;
55290;SDS011;41155;39.768;2.712;2023-04-03T15:55:06;8.18;;;3.97;;
55290;SDS011;41155;39.768;2.712;2023-04-03T15:57:31;9.30;;;3.60;;
55290;SDS011;41155;39.768;2.712;2023-04-03T15:59:57;14.38;;;3.70;;
55290;SDS011;41155;39.768;2.712;2023-04-03T16:02:22;7.78;;;3.83;;
55290;SDS011;41155;39.768;2.712;2023-04-03T16:04:48;11.00;;;3.88;;
55290;SDS011;41155;39.768;2.712;2023-04-03T16:07:14;8.23;;;4.03;;
55290;SDS011;41155;39.768;2.712;2023-04-03T16:09:39;7.97;;;4.18;;
55290;SDS011;41155;39.768;2.712;2023-04-03T16:12:05;8.27;;;3.95;;
55290;SDS011;41155;39.768;2.712;2023-04-03T16:14:31;4.93;;;3.80;;
55290;SDS011;41155;39.768;2.712;2023-04-03T16:16:57;7.07;;;3.80;;
55290;SDS011;41155;39.768;2.712;2023-04-03T16:19:23;8.45;;;3.53;;
55290;SDS011;41155;39.768;2.712;2023-04-03T16:21:49;8.68;;;4.05;;
55290;SDS011;41155;39.768;2.712;2023-04-03T16:24:15;7.05;;;4.07;;
55290;SDS011;41155;39.768;2.712;2023-04-03T16:26:40;12.15;;;4.60;;
55290;SDS011;41155;39.768;2.712;2023-04-03T16:29:06;10.90;;;4.45;;
55290;SDS011;41155;39.768;2.712;2023-04-03T16:31:31;5.45;;;3.65;;
55290;SDS011;41155;39.768;2.712;2023-04-03T16:33:58;13.15;;;4.10;;
55290;SDS011;41155;39.768;2.712;2023-04-03T16:36:25;9.02;;;4.20;;
55290;SDS011;41155;39.768;2.712;2023-04-03T16:38:51;5.70;;;3.70;;
55290;SDS011;41155;39.768;2.712;2023-04-03T16:41:16;10.85;;;4.05;;
55290;SDS011;41155;39.768;2.712;2023-04-03T16:43:42;7.32;;;4.05;;
55290;SDS011;41155;39.768;2.712;2023-04-03T16:46:07;6.07;;;4.03;;
55290;SDS011;41155;39.768;2.712;2023-04-03T16:48:33;7.63;;;3.60;;
55290;SDS011;41155;39.768;2.712;2023-04-03T16:50:59;9.02;;;3.90;;